Time;durP1;ratioP1;P1;durP2;ratioP2;P2;SDS_P1;SDS_P2;PMS_P1;PMS_P2;Temp;Humidity;BMP_temperature;BMP_pressure;BME280_temperature;BME280_humidity;BME280_pressure;Samples;Min_cycle;Max_cycle;Signal;HPM_P1;HPM_P2
2023/05/02 00:00:39;;;;;;;12.65;8.68;;;15.80;98.30;;;;;;6127126;23;20014;-66
2023/05/02 00:03:05;;;;;;;9.57;8.57;;;15.80;98.30;;;;;;6127148;23;19998;-67
2023/05/02 00:05:30;;;;;;;9.13;8.18;;;15.80;98.20;;;;;;6127217;23;20009;-66
2023/05/02 00:07:56;;;;;;;10.38;9.15;;;15.80;98.40;;;;;;6127590;23;20014;-66
2023/05/02 00:10:22;;;;;;;9.77;8.68;;;15.80;98.60;;;;;;6127558;23;20105;-66
2023/05/02 00:12:48;;;;;;;12.38;9.27;;;15.80;98.60;;;;;;6127401;23;20005;-66
2023/05/02 00:15:14;;;;;;;9.07;8.13;;;15.80;98.50;;;;;;6127572;23;20114;-66
2023/05/02 00:17:43;;;;;;;10.10;8.57;;;15.80;98.30;;;;;;6127321;23;20075;-66
2023/05/02 00:20:11;;;;;;;11.13;8.52;;;15.80;98.10;;;;;;6126774;23;20009;-66
2023/05/02 00:22:38;;;;;;;13.43;8.00;;;15.80;98.00;;;;;;6127259;23;20039;-65
2023/05/02 00:25:04;;;;;;;9.80;8.63;;;15.80;98.20;;;;;;6127349;23;20057;-66
2023/05/02 00:27:33;;;;;;;9.50;8.10;;;15.80;98.30;;;;;;6126828;23;20030;-65
2023/05/02 00:29:59;;;;;;;14.55;10.20;;;15.80;98.30;;;;;;6127659;23;20432;-65
2023/05/02 00:32:25;;;;;;;10.95;9.32;;;15.80;98.40;;;;;;6127398;23;20073;-66
2023/05/02 00:34:51;;;;;;;11.48;9.50;;;15.80;98.50;;;;;;6127344;23;20455;-66
2023/05/02 00:37:17;;;;;;;10.40;9.27;;;15.80;98.80;;;;;;6127338;23;20002;-66
2023/05/02 00:39:43;;;;;;;10.65;9.52;;;15.80;98.70;;;;;;6126741;23;20022;-66
2023/05/02 00:42:09;;;;;;;9.40;8.45;;;15.70;98.70;;;;;;6126986;23;20310;-67
2023/05/02 00:44:35;;;;;;;11.73;9.57;;;15.70;98.80;;;;;;6126894;23;20022;-66
2023/05/02 00:47:01;;;;;;;10.98;9.88;;;15.70;98.90;;;;;;6126920;23;20002;-67
2023/05/02 00:49:27;;;;;;;11.82;9.88;;;15.70;98.80;;;;;;6126882;23;19998;-67
2023/05/02 00:51:53;;;;;;;11.27;9.05;;;15.60;98.90;;;;;;6126990;23;20029;-66
2023/05/02 00:54:19;;;;;;;11.70;8.63;;;15.60;99.10;;;;;;6126934;23;19998;-66
2023/05/02 00:56:46;;;;;;;12.32;10.02;;;15.50;99.40;;;;;;6126813;23;20013;-66
2023/05/02 00:59:13;;;;;;;11.75;8.85;;;15.50;99.40;;;;;;6124100;23;20037;-66
2023/05/02 01:01:48;;;;;;;11.82;9.85;;;15.50;99.50;;;;;;6123770;23;20017;-66
2023/05/02 01:04:52;;;;;;;12.77;9.27;;;15.40;99.60;;;;;;6123962;23;20025;-65
2023/05/02 01:07:24;;;;;;;12.70;10.18;;;15.40;99.70;;;;;;6124941;23;20006;-66
2023/05/02 01:10:01;;;;;;;10.25;8.45;;;15.50;99.70;;;;;;6126779;23;20029;-66
2023/05/02 01:12:32;;;;;;;12.57;9.10;;;15.50;99.60;;;;;;6126959;23;20009;-66
2023/05/02 01:15:04;;;;;;;12.13;9.50;;;15.60;99.60;;;;;;6126785;23;19998;-66
2023/05/02 01:17:33;;;;;;;10.60;9.38;;;15.50;99.40;;;;;;6126809;23;20138;-68
2023/05/02 01:20:03;;;;;;;10.82;9.68;;;15.50;99.60;;;;;;6126655;23;19998;-66
2023/05/02 01:22:30;;;;;;;10.98;9.88;;;15.50;99.50;;;;;;6126382;23;20088;-66
2023/05/02 01:25:14;;;;;;;11.48;10.18;;;15.50;99.50;;;;;;6126351;23;20069;-66
2023/05/02 01:27:53;;;;;;;13.40;10.55;;;15.40;99.40;;;;;;6126338;23;20006;-66
2023/05/02 01:30:20;;;;;;;13.85;10.00;;;15.40;99.60;;;;;;6126692;23;19998;-66
2023/05/02 01:32:48;;;;;;;12.77;10.25;;;15.40;99.50;;;;;;6126768;23;20333;-66
2023/05/02 01:35:17;;;;;;;11.65;10.07;;;15.40;99.40;;;;;;6125930;23;20002;-66
2023/05/02 01:37:48;;;;;;;12.00;9.63;;;15.40;99.40;;;;;;6126599;23;20037;-66
2023/05/02 01:40:18;;;;;;;13.90;9.57;;;15.40;99.50;;;;;;6126990;23;20009;-66
2023/05/02 01:42:45;;;;;;;15.23;9.93;;;15.40;99.40;;;;;;6126456;23;20382;-66
2023/05/02 01:45:11;;;;;;;10.27;9.27;;;15.30;99.30;;;;;;6126066;23;20009;-66
2023/05/02 01:47:39;;;;;;;11.40;10.23;;;15.30;99.30;;;;;;6126219;23;20076;-66
2023/05/02 01:50:08;;;;;;;11.63;10.00;;;15.30;99.40;;;;;;6126602;23;20005;-66
2023/05/02 01:52:36;;;;;;;11.27;9.52;;;15.30;99.50;;;;;;6126412;23;20021;-66
2023/05/02 01:55:03;;;;;;;14.38;10.35;;;15.40;99.60;;;;;;6126512;23;19998;-66
2023/05/02 01:57:30;;;;;;;13.95;9.52;;;15.30;99.70;;;;;;6126312;23;20373;-66
2023/05/02 01:59:57;;;;;;;12.68;9.85;;;15.30;99.90;;;;;;6126115;23;20002;-66
2023/05/02 02:02:28;;;;;;;11.70;10.23;;;15.30;99.90;;;;;;6126601;23;20466;-66
2023/05/02 02:04:58;;;;;;;10.77;9.68;;;15.40;99.90;;;;;;6126313;23;20009;-65
2023/05/02 02:07:24;;;;;;;11.63;9.88;;;15.30;99.50;;;;;;6126317;23;20002;-66
2023/05/02 02:09:50;;;;;;;11.05;9.77;;;15.30;99.50;;;;;;6126110;23;20053;-66
2023/05/02 02:12:41;;;;;;;11.07;10.07;;;15.30;99.50;;;;;;6126596;23;20029;-66
2023/05/02 02:15:18;;;;;;;10.38;9.00;;;15.20;99.60;;;;;;6126507;23;20085;-66
2023/05/02 02:17:59;;;;;;;10.60;9.15;;;15.30;99.90;;;;;;6126171;23;20056;-65
2023/05/02 02:20:27;;;;;;;10.77;9.75;;;15.20;99.90;;;;;;6126409;23;20017;-66
2023/05/02 02:22:55;;;;;;;11.05;9.95;;;15.20;99.90;;;;;;6100243;23;20436;-66
2023/05/02 02:25:21;;;;;;;14.55;8.52;;;15.20;99.90;;;;;;6126531;23;20094;-65
2023/05/02 02:27:47;;;;;;;11.13;9.32;;;15.10;99.90;;;;;;6126334;23;20313;-66
2023/05/02 02:30:15;;;;;;;10.05;9.05;;;15.20;99.80;;;;;;6125795;23;19998;-66
2023/05/02 02:32:41;;;;;;;9.30;8.40;;;15.20;99.70;;;;;;6099631;23;20361;-66
2023/05/02 02:35:07;;;;;;;9.93;8.93;;;15.20;99.60;;;;;;6125910;23;20053;-66
2023/05/02 02:37:50;;;;;;;11.40;9.25;;;15.20;99.60;;;;;;6125898;23;20012;-66
2023/05/02 02:40:36;;;;;;;9.27;8.27;;;15.20;99.80;;;;;;6126258;23;20002;-66
2023/05/02 02:43:30;;;;;;;9.90;8.65;;;15.20;99.90;;;;;;6126333;23;20006;-66
2023/05/02 02:46:05;;;;;;;12.23;8.95;;;15.20;99.90;;;;;;6126257;23;20010;-65
2023/05/02 02:48:57;;;;;;;10.95;8.65;;;15.20;99.90;;;;;;6126362;23;20084;-66
2023/05/02 02:51:38;;;;;;;11.93;8.98;;;15.20;99.90;;;;;;6095048;23;20440;-66
2023/05/02 02:54:33;;;;;;;9.55;8.52;;;15.10;99.90;;;;;;6125972;23;20006;-66
2023/05/02 02:57:25;;;;;;;10.30;8.02;;;15.10;99.90;;;;;;6125787;23;20057;-66
2023/05/02 03:00:21;;;;;;;14.30;9.38;;;15.00;99.90;;;;;;6096828;23;20012;-66
2023/05/02 03:02:47;;;;;;;10.13;8.20;;;14.90;99.90;;;;;;6123777;23;20017;-66
2023/05/02 03:05:13;;;;;;;10.38;9.30;;;14.90;99.90;;;;;;6123513;23;20010;-66
2023/05/02 03:07:39;;;;;;;11.77;9.52;;;14.80;99.90;;;;;;6124066;23;20006;-66
2023/05/02 03:10:06;;;;;;;10.93;8.40;;;14.90;99.90;;;;;;6123873;23;20004;-66
2023/05/02 03:12:32;;;;;;;8.70;7.38;;;14.90;99.90;;;;;;6125003;23;20041;-66
2023/05/02 03:15:12;;;;;;;7.90;7.10;;;14.80;99.90;;;;;;6125621;23;20002;-66
2023/05/02 03:17:38;;;;;;;11.07;6.97;;;14.80;99.90;;;;;;6126326;23;19998;-66
2023/05/02 03:20:04;;;;;;;9.32;6.63;;;14.80;99.90;;;;;;6126210;23;20009;-66
2023/05/02 03:22:30;;;;;;;6.80;6.10;;;14.90;99.90;;;;;;6125927;23;20466;-66
2023/05/02 03:24:56;;;;;;;8.80;6.95;;;14.90;99.90;;;;;;6125813;23;19998;-66
2023/05/02 03:27:21;;;;;;;8.57;6.80;;;14.90;99.90;;;;;;6125856;23;20021;-66
2023/05/02 03:29:47;;;;;;;9.35;6.80;;;14.90;99.90;;;;;;6125975;23;20008;-66
2023/05/02 03:32:13;;;;;;;8.57;6.63;;;14.90;99.90;;;;;;6126089;23;20034;-65
2023/05/02 03:34:40;;;;;;;7.75;7.00;;;14.90;99.90;;;;;;6126056;23;20057;-66
2023/05/02 03:37:06;;;;;;;8.73;6.78;;;14.90;99.90;;;;;;6126013;23;20005;-66
2023/05/02 03:39:32;;;;;;;6.32;5.70;;;14.90;99.90;;;;;;6125825;23;19994;-66
2023/05/02 03:41:57;;;;;;;6.13;5.18;;;14.90;99.90;;;;;;6125668;23;20344;-66
2023/05/02 03:44:23;;;;;;;7.88;4.97;;;14.90;99.90;;;;;;6125793;23;20006;-66
2023/05/02 03:46:49;;;;;;;6.85;5.60;;;14.80;99.90;;;;;;6099956;23;20108;-66
2023/05/02 03:49:14;;;;;;;6.15;5.55;;;14.80;99.90;;;;;;6125350;23;20073;-65
2023/05/02 03:51:40;;;;;;;6.75;5.35;;;14.80;99.90;;;;;;6125810;23;20045;-66
2023/05/02 03:54:06;;;;;;;7.80;5.07;;;14.80;99.90;;;;;;6125408;23;20010;-66
2023/05/02 03:56:32;;;;;;;10.15;5.38;;;14.80;99.90;;;;;;6125333;23;20056;-65
2023/05/02 03:58:58;;;;;;;5.90;5.30;;;14.80;99.90;;;;;;6125666;23;20002;-66
2023/05/02 04:01:23;;;;;;;7.18;5.53;;;14.80;99.90;;;;;;6125707;23;20010;-66
2023/05/02 04:03:51;;;;;;;6.78;5.32;;;14.80;99.90;;;;;;6125904;23;20471;-66
2023/05/02 04:06:16;;;;;;;8.45;5.45;;;14.90;99.90;;;;;;6125990;23;20009;-66
2023/05/02 04:08:42;;;;;;;6.10;5.55;;;14.90;99.90;;;;;;6125777;23;20014;-66
2023/05/02 04:11:08;;;;;;;6.43;5.57;;;14.90;99.90;;;;;;6125580;23;20113;-67
2023/05/02 04:13:34;;;;;;;8.50;5.97;;;14.80;99.90;;;;;;6125469;23;20052;-66
2023/05/02 04:15:59;;;;;;;7.90;6.18;;;14.80;99.90;;;;;;6125432;23;20006;-66
2023/05/02 04:18:25;;;;;;;8.18;6.05;;;14.80;99.90;;;;;;6125524;23;20002;-66
2023/05/02 04:20:51;;;;;;;7.38;5.40;;;14.80;99.90;;;;;;6125551;23;20025;-66
2023/05/02 04:23:17;;;;;;;7.65;6.50;;;14.80;99.90;;;;;;6125910;23;20010;-66
2023/05/02 04:25:55;;;;;;;7.45;5.68;;;14.80;99.90;;;;;;6125606;23;20006;-66
2023/05/02 04:28:22;;;;;;;7.22;5.78;;;14.80;99.90;;;;;;6125683;23;20085;-66
2023/05/02 04:30:48;;;;;;;12.40;6.45;;;14.80;99.90;;;;;;6125476;23;20325;-66
2023/05/02 04:33:14;;;;;;;7.72;5.90;;;14.80;99.90;;;;;;6125558;23;20006;-66
2023/05/02 04:35:40;;;;;;;6.82;6.07;;;14.80;99.90;;;;;;6125639;23;20333;-66
2023/05/02 04:38:06;;;;;;;9.95;5.80;;;14.80;99.90;;;;;;6125589;23;20002;-66
2023/05/02 04:40:33;;;;;;;9.15;5.90;;;14.90;99.90;;;;;;6126310;23;20006;-66
2023/05/02 04:42:58;;;;;;;6.50;5.90;;;14.90;99.90;;;;;;6127604;23;20006;-66
2023/05/02 04:45:25;;;;;;;7.95;5.85;;;14.90;99.90;;;;;;6127415;23;20056;-66
2023/05/02 04:47:50;;;;;;;7.75;6.30;;;14.90;99.90;;;;;;6127425;23;20062;-66
2023/05/02 04:50:16;;;;;;;6.80;6.20;;;14.90;99.90;;;;;;6127218;23;20010;-66
2023/05/02 04:52:42;;;;;;;6.90;6.20;;;14.90;99.90;;;;;;6127400;23;20492;-67
2023/05/02 04:55:08;;;;;;;6.43;5.82;;;14.90;99.90;;;;;;6127403;23;20006;-66
2023/05/02 04:57:34;;;;;;;8.63;6.22;;;14.80;99.90;;;;;;6127915;23;20006;-67
2023/05/02 05:00:00;;;;;;;6.75;6.05;;;14.80;99.90;;;;;;6127333;23;20420;-65
2023/05/02 05:02:26;;;;;;;7.82;5.80;;;14.80;99.90;;;;;;6101029;23;20460;-66
2023/05/02 05:04:51;;;;;;;9.50;6.38;;;14.80;99.90;;;;;;6127546;23;20061;-66
2023/05/02 05:07:17;;;;;;;10.35;6.00;;;14.70;99.90;;;;;;6127315;23;20057;-66
2023/05/02 05:09:43;;;;;;;7.30;5.43;;;14.70;99.90;;;;;;6127106;23;19998;-66
2023/05/02 05:12:09;;;;;;;7.50;6.00;;;14.70;99.90;;;;;;6126931;23;20010;-66
2023/05/02 05:14:34;;;;;;;7.60;5.68;;;14.70;99.90;;;;;;6127124;23;20002;-66
2023/05/02 05:17:00;;;;;;;9.40;6.35;;;14.70;99.90;;;;;;6126972;23;20006;-66
2023/05/02 05:19:26;;;;;;;6.50;5.90;;;14.80;99.90;;;;;;6126936;23;20009;-66
2023/05/02 05:21:52;;;;;;;8.70;6.78;;;14.80;99.90;;;;;;6127006;23;20017;-66
2023/05/02 05:24:18;;;;;;;9.70;5.88;;;14.80;99.90;;;;;;6126766;23;20377;-66
2023/05/02 05:26:44;;;;;;;9.18;6.18;;;14.80;99.90;;;;;;6126804;23;20017;-66
2023/05/02 05:29:09;;;;;;;8.00;6.57;;;14.80;99.90;;;;;;6126774;23;20024;-66
2023/05/02 05:31:35;;;;;;;6.80;5.78;;;14.80;99.90;;;;;;6128076;23;20028;-66
2023/05/02 05:34:01;;;;;;;9.05;6.72;;;14.80;99.90;;;;;;6128264;23;20060;-66
2023/05/02 05:36:27;;;;;;;14.25;5.97;;;14.80;99.90;;;;;;6127520;23;20376;-65
2023/05/02 05:38:53;;;;;;;9.55;6.68;;;14.90;99.90;;;;;;6126464;23;20002;-67
2023/05/02 05:41:19;;;;;;;7.32;6.47;;;14.90;99.90;;;;;;6126065;23;20014;-66
2023/05/02 05:43:45;;;;;;;9.10;6.80;;;14.90;99.90;;;;;;6125831;23;20002;-66
2023/05/02 05:46:11;;;;;;;6.93;6.22;;;14.90;99.90;;;;;;6125800;23;20012;-67
2023/05/02 05:48:36;;;;;;;7.88;6.45;;;14.90;99.90;;;;;;6126786;23;20036;-66
2023/05/02 06:34:38;;;;;;;10.05;7.35;;;14.90;99.90;;;;;;6153940;23;20104;-66
2023/05/02 06:37:04;;;;;;;12.88;7.20;;;14.90;99.90;;;;;;6155609;23;20029;-66
2023/05/02 06:39:30;;;;;;;7.72;6.55;;;14.90;99.90;;;;;;6155231;23;20026;-66
2023/05/02 06:41:57;;;;;;;8.68;7.13;;;15.00;99.90;;;;;;6154971;23;20451;-66
2023/05/02 06:44:23;;;;;;;8.68;7.45;;;15.00;99.90;;;;;;6155400;23;20058;-66
2023/05/02 06:46:49;;;;;;;10.20;7.22;;;15.00;99.90;;;;;;6155322;23;20025;-65
2023/05/02 06:49:15;;;;;;;8.77;7.00;;;15.00;99.90;;;;;;6155653;23;20301;-65
2023/05/02 06:51:41;;;;;;;13.85;6.43;;;15.00;99.90;;;;;;6155086;23;20033;-66
2023/05/02 06:54:07;;;;;;;10.25;6.72;;;15.10;99.90;;;;;;6155250;23;20001;-66
2023/05/02 06:56:33;;;;;;;9.27;7.25;;;15.10;99.90;;;;;;6155224;23;20001;-65
2023/05/02 06:58:59;;;;;;;9.40;6.50;;;15.00;99.90;;;;;;6155364;23;20056;-66
2023/05/02 07:01:25;;;;;;;7.70;6.90;;;15.00;99.90;;;;;;6155120;23;20013;-65
2023/05/02 07:03:51;;;;;;;9.02;6.80;;;15.00;99.90;;;;;;6155213;23;20005;-66
2023/05/02 07:06:17;;;;;;;10.25;7.05;;;15.00;99.90;;;;;;6154803;23;20499;-65
2023/05/02 07:08:43;;;;;;;10.68;7.15;;;15.00;99.90;;;;;;6154908;23;20006;-66
2023/05/02 07:11:08;;;;;;;7.75;7.00;;;15.00;99.90;;;;;;6154911;23;20005;-66
2023/05/02 07:13:34;;;;;;;9.80;7.47;;;15.10;99.90;;;;;;6155032;23;20025;-65
2023/05/02 07:16:00;;;;;;;8.18;5.90;;;15.10;99.90;;;;;;6155151;23;20029;-66
2023/05/02 07:18:26;;;;;;;5.97;5.38;;;15.10;99.90;;;;;;6155234;23;20018;-65
2023/05/02 07:20:52;;;;;;;5.63;4.03;;;15.20;99.90;;;;;;6155159;23;20032;-64
2023/05/02 07:23:17;;;;;;;5.75;3.08;;;15.20;99.90;;;;;;6155087;23;20031;-65
2023/05/02 07:25:43;;;;;;;3.70;2.75;;;15.20;99.90;;;;;;6155275;23;20005;-66
2023/05/02 07:28:09;;;;;;;3.53;2.95;;;15.20;99.90;;;;;;6155358;23;20006;-66
2023/05/02 07:30:35;;;;;;;3.28;2.38;;;15.20;99.90;;;;;;6154667;23;20028;-65
2023/05/02 07:33:01;;;;;;;5.30;3.50;;;15.30;99.90;;;;;;6154281;23;20104;-66
2023/05/02 07:35:26;;;;;;;8.02;5.18;;;15.20;99.90;;;;;;6155293;23;20002;-66
2023/05/02 07:37:52;;;;;;;10.95;6.03;;;15.30;99.90;;;;;;6155315;23;20006;-66
2023/05/02 07:40:18;;;;;;;6.68;5.88;;;15.30;99.90;;;;;;6154472;23;19997;-66
2023/05/02 07:42:44;;;;;;;5.93;5.43;;;15.30;99.90;;;;;;6154232;23;20013;-66
2023/05/02 07:45:09;;;;;;;7.53;6.72;;;15.20;99.90;;;;;;6155232;23;20005;-66
2023/05/02 07:47:35;;;;;;;7.15;6.45;;;15.20;99.90;;;;;;6155178;23;20440;-65
2023/05/02 07:50:03;;;;;;;8.32;6.00;;;15.20;99.90;;;;;;6155039;23;20092;-66
2023/05/02 07:52:29;;;;;;;6.35;5.05;;;15.30;99.90;;;;;;6154524;23;20365;-65
2023/05/02 07:54:55;;;;;;;6.05;4.72;;;15.30;99.90;;;;;;6154807;23;20009;-66
2023/05/02 07:57:22;;;;;;;7.18;4.90;;;15.30;99.90;;;;;;6154476;23;20033;-66
2023/05/02 07:59:48;;;;;;;4.82;3.92;;;15.30;99.90;;;;;;6154900;23;20005;-66
2023/05/02 08:02:16;;;;;;;8.05;4.20;;;15.30;99.90;;;;;;6154576;23;20080;-66
2023/05/02 08:04:42;;;;;;;5.38;3.22;;;15.30;99.90;;;;;;6154280;23;20344;-65
2023/05/02 08:07:07;;;;;;;3.35;2.53;;;15.30;99.90;;;;;;6154141;23;20008;-65
2023/05/02 08:09:33;;;;;;;2.25;2.03;;;15.30;99.90;;;;;;6154064;23;20008;-66
2023/05/02 08:12:01;;;;;;;3.22;2.38;;;15.40;99.90;;;;;;6154382;23;20049;-66
2023/05/02 08:14:27;;;;;;;3.50;2.47;;;15.40;99.90;;;;;;6154300;23;20005;-65
2023/05/02 08:16:52;;;;;;;6.50;2.17;;;15.40;99.90;;;;;;6156286;23;20016;-65
2023/05/02 08:19:18;;;;;;;2.65;2.00;;;15.40;99.90;;;;;;6155964;23;20002;-66
2023/05/02 08:21:44;;;;;;;2.13;1.60;;;15.40;99.90;;;;;;6156094;23;20103;-67
2023/05/02 08:24:10;;;;;;;2.08;1.65;;;15.40;99.90;;;;;;6156151;23;20009;-65
2023/05/02 08:26:35;;;;;;;3.03;1.70;;;15.30;99.90;;;;;;6154881;23;20021;-66
2023/05/02 08:29:03;;;;;;;3.88;1.90;;;15.30;99.90;;;;;;6155905;23;20002;-66
2023/05/02 08:31:29;;;;;;;3.05;1.80;;;15.40;99.90;;;;;;6156179;23;20002;-66
2023/05/02 08:33:55;;;;;;;1.83;1.50;;;15.40;99.90;;;;;;6155968;23;20048;-66
2023/05/02 08:36:21;;;;;;;2.40;1.63;;;15.30;99.90;;;;;;6155862;23;20010;-65
2023/05/02 08:38:46;;;;;;;2.75;1.58;;;15.30;99.90;;;;;;6156401;23;20076;-65
2023/05/02 08:41:17;;;;;;;1.60;1.50;;;15.40;99.80;;;;;;6156464;23;20014;-66
2023/05/02 08:43:44;;;;;;;2.83;1.70;;;15.40;99.70;;;;;;6155109;23;20419;-66
2023/05/02 08:46:11;;;;;;;2.13;1.55;;;15.40;99.90;;;;;;6154063;23;20069;-66
2023/05/02 08:48:40;;;;;;;2.63;1.95;;;15.40;99.90;;;;;;6155385;23;20072;-65
2023/05/02 08:51:14;;;;;;;2.58;1.17;;;15.40;99.80;;;;;;6155219;23;20009;-66
2023/05/02 08:53:40;;;;;;;2.33;1.30;;;15.40;99.40;;;;;;6155355;23;20025;-66
2023/05/02 08:56:07;;;;;;;1.95;1.40;;;15.40;99.40;;;;;;6155740;23;20032;-65
2023/05/02 08:58:35;;;;;;;1.20;1.10;;;15.40;99.50;;;;;;6153122;23;20048;-65
2023/05/02 09:01:03;;;;;;;1.30;1.20;;;15.50;99.70;;;;;;6154569;23;20076;-66
2023/05/02 09:03:36;;;;;;;1.42;1.05;;;15.50;99.60;;;;;;6154885;23;20364;-66
2023/05/02 09:06:17;;;;;;;1.80;1.15;;;15.50;99.50;;;;;;6155812;23;20410;-70
2023/05/02 09:08:45;;;;;;;1.20;1.10;;;15.50;99.30;;;;;;6155659;23;20360;-66
2023/05/02 09:11:11;;;;;;;5.65;1.40;;;15.50;99.00;;;;;;6155303;23;20009;-66
2023/05/02 09:13:42;;;;;;;2.97;1.20;;;15.60;99.10;;;;;;6155845;23;19998;-70
2023/05/02 09:16:11;;;;;;;1.70;1.20;;;15.60;99.30;;;;;;6155464;23;19997;-65
2023/05/02 09:18:41;;;;;;;1.80;1.20;;;15.60;99.30;;;;;;6155541;23;20088;-65
2023/05/02 09:21:12;;;;;;;1.58;1.13;;;15.60;99.20;;;;;;6154838;23;20472;-66
2023/05/02 09:23:42;;;;;;;2.30;1.33;;;15.70;99.10;;;;;;6155906;23;20088;-66
2023/05/02 09:26:16;;;;;;;3.08;2.80;;;15.60;99.20;;;;;;6154916;23;20017;-66
2023/05/02 09:28:47;;;;;;;2.92;2.20;;;15.70;99.20;;;;;;6155124;23;20017;-65
2023/05/02 09:31:20;;;;;;;2.20;1.90;;;15.60;99.20;;;;;;6154745;23;20348;-65
2023/05/02 09:33:45;;;;;;;;;;;15.70;99.40;;;;;;6155408;23;20014;-65
2023/05/02 09:36:14;;;;;;;2.95;1.40;;;15.70;99.50;;;;;;6155368;23;19959;-66
2023/05/02 09:38:44;;;;;;;3.05;1.20;;;15.70;99.70;;;;;;6155079;23;20012;-66
2023/05/02 09:41:10;;;;;;;1.60;1.38;;;15.80;99.60;;;;;;6154633;23;20121;-65
2023/05/02 09:43:36;;;;;;;3.85;1.60;;;15.80;99.30;;;;;;6155100;23;20001;-66
2023/05/02 09:46:07;;;;;;;2.22;1.42;;;15.80;99.50;;;;;;6155419;23;20443;-66
2023/05/02 09:48:55;;;;;;;4.93;1.70;;;15.80;99.80;;;;;;6154972;23;20049;-65
2023/05/02 09:51:23;;;;;;;2.00;1.38;;;15.90;99.80;;;;;;6154784;23;20160;-65
2023/05/02 09:53:49;;;;;;;4.35;1.55;;;15.90;99.80;;;;;;6154997;23;20005;-66
2023/05/02 09:56:15;;;;;;;3.92;1.27;;;15.90;99.70;;;;;;6155035;23;20436;-66
2023/05/02 09:58:41;;;;;;;3.20;1.20;;;15.90;99.70;;;;;;6155053;23;20112;-65
2023/05/02 10:01:07;;;;;;;1.60;1.33;;;15.90;99.90;;;;;;6154071;23;20084;-65
2023/05/02 10:03:36;;;;;;;1.65;1.20;;;15.90;99.90;;;;;;6154759;23;19997;-66
2023/05/02 10:06:04;;;;;;;1.70;1.15;;;15.90;99.70;;;;;;6154519;23;20355;-66
2023/05/02 10:08:32;;;;;;;2.53;1.13;;;15.90;99.60;;;;;;6155043;23;20309;-66
2023/05/02 10:10:59;;;;;;;5.32;1.25;;;16.00;99.60;;;;;;6153397;23;20027;-66
2023/05/02 10:13:31;;;;;;;1.58;1.30;;;16.00;99.50;;;;;;6152844;23;20008;-66
2023/05/02 10:16:05;;;;;;;1.10;0.95;;;16.00;99.40;;;;;;6154003;23;20005;-66
2023/05/02 10:18:49;;;;;;;3.17;1.10;;;16.00;99.40;;;;;;6154869;23;20088;-65
2023/05/02 10:21:28;;;;;;;1.38;1.25;;;16.00;99.40;;;;;;6154959;23;20056;-66
2023/05/02 10:23:54;;;;;;;1.17;1.08;;;16.00;99.40;;;;;;6154459;23;20009;-66
2023/05/02 10:26:22;;;;;;;3.35;1.30;;;16.10;99.20;;;;;;6154306;23;20443;-66
2023/05/02 10:28:49;;;;;;;1.80;1.30;;;16.10;99.20;;;;;;6154121;23;20077;-66
2023/05/02 10:31:16;;;;;;;3.72;1.30;;;16.10;99.40;;;;;;6154669;23;20036;-66
2023/05/02 10:33:42;;;;;;;4.47;1.20;;;16.20;99.00;;;;;;6154686;23;20021;-65
2023/05/02 10:36:11;;;;;;;2.33;1.10;;;16.20;99.30;;;;;;6154793;23;20007;-69
2023/05/02 10:38:38;;;;;;;1.40;1.10;;;16.20;99.00;;;;;;6154737;23;20289;-66
2023/05/02 10:41:32;;;;;;;1.77;1.02;;;16.20;98.90;;;;;;6154680;23;20048;-67
2023/05/02 10:43:59;;;;;;;12.88;1.38;;;16.30;98.60;;;;;;6150803;23;20349;-68
2023/05/02 10:46:34;;;;;;;1.75;1.20;;;16.40;98.20;;;;;;6154789;23;20424;-69
2023/05/02 10:49:07;;;;;;;1.58;0.98;;;16.40;98.40;;;;;;6154043;23;20001;-66
2023/05/02 10:51:35;;;;;;;1.65;0.95;;;16.40;98.20;;;;;;6155210;23;20005;-65
2023/05/02 10:54:19;;;;;;;0.90;0.90;;;16.40;97.90;;;;;;6154917;23;20301;-65
2023/05/02 10:57:02;;;;;;;2.55;1.10;;;16.50;97.60;;;;;;6155507;23;20324;-65
2023/05/02 10:59:36;;;;;;;1.92;1.00;;;16.50;97.40;;;;;;6154776;23;20601;-66
2023/05/02 11:02:02;;;;;;;1.30;0.90;;;16.50;97.30;;;;;;6154256;23;20436;-66
2023/05/02 11:04:57;;;;;;;1.20;1.08;;;16.50;97.20;;;;;;6155117;23;20002;-66
2023/05/02 11:07:23;;;;;;;1.30;1.20;;;16.50;97.30;;;;;;6154876;23;20072;-65
2023/05/02 11:09:49;;;;;;;2.40;1.00;;;16.50;97.10;;;;;;6155113;23;20051;-66
2023/05/02 11:12:49;;;;;;;4.10;1.88;;;16.60;97.10;;;;;;6154944;23;20072;-66
2023/05/02 11:15:40;;;;;;;1.15;0.90;;;16.60;96.70;;;;;;6155273;23;20014;-65
2023/05/02 11:18:07;;;;;;;2.58;0.95;;;16.60;96.40;;;;;;6155126;23;20076;-65
2023/05/02 11:20:35;;;;;;;1.50;0.95;;;16.70;96.20;;;;;;6154624;23;20397;-65
2023/05/02 11:23:16;;;;;;;0.93;0.90;;;16.70;95.90;;;;;;6128107;23;20041;-67
2023/05/02 11:25:49;;;;;;;1.33;0.95;;;16.80;95.70;;;;;;6154255;23;20117;-66
2023/05/02 11:28:37;;;;;;;1.08;0.88;;;16.90;95.40;;;;;;6154046;23;20029;-65
2023/05/02 11:31:25;;;;;;;2.38;1.15;;;16.90;94.90;;;;;;6154801;23;20424;-65
2023/05/02 11:33:58;;;;;;;1.00;0.75;;;16.90;94.70;;;;;;6082617;23;20060;-65
2023/05/02 11:36:32;;;;;;;1.27;1.05;;;16.90;94.80;;;;;;6124640;23;20030;-65
2023/05/02 11:39:01;;;;;;;2.47;1.00;;;17.00;94.60;;;;;;6125194;23;20077;-66
2023/05/02 11:41:40;;;;;;;1.50;0.85;;;17.00;94.30;;;;;;6124456;23;20097;-64
2023/05/02 11:44:06;;;;;;;1.50;1.08;;;17.00;94.00;;;;;;6124581;23;19998;-65
2023/05/02 11:46:35;;;;;;;1.40;1.17;;;17.10;93.80;;;;;;6125003;23;20010;-66
2023/05/02 11:49:01;;;;;;;3.83;1.10;;;17.10;93.60;;;;;;6125016;23;20006;-65
2023/05/02 11:51:27;;;;;;;1.15;0.98;;;17.10;93.90;;;;;;6126713;23;20190;-66
2023/05/02 11:53:53;;;;;;;1.45;1.13;;;17.10;93.90;;;;;;6127216;23;20440;-65
2023/05/02 11:56:26;;;;;;;4.18;1.25;;;17.10;93.50;;;;;;6127013;23;20326;-66
2023/05/02 11:58:58;;;;;;;2.35;1.10;;;17.20;93.90;;;;;;6125632;23;20431;-65
2023/05/02 12:01:24;;;;;;;2.88;1.23;;;17.20;94.30;;;;;;6124177;23;20065;-65
2023/05/02 12:04:05;;;;;;;2.08;1.05;;;17.30;94.70;;;;;;6124546;23;20005;-65
2023/05/02 12:06:31;;;;;;;2.95;1.15;;;17.30;94.30;;;;;;6126808;23;20413;-65
2023/05/02 12:09:13;;;;;;;1.20;0.90;;;17.30;93.80;;;;;;6127011;23;20010;-66
2023/05/02 12:11:38;;;;;;;3.13;0.90;;;17.40;93.50;;;;;;6126989;23;20042;-66
2023/05/02 12:14:05;;;;;;;3.10;1.00;;;17.40;93.10;;;;;;6126673;23;20436;-66
2023/05/02 12:16:31;;;;;;;4.22;1.20;;;17.50;92.90;;;;;;6127410;23;19998;-66
2023/05/02 12:18:58;;;;;;;1.08;0.85;;;17.50;92.70;;;;;;6127556;23;20045;-66
2023/05/02 12:21:25;;;;;;;1.73;1.10;;;17.50;92.90;;;;;;6126117;23;20018;-66
2023/05/02 12:23:52;;;;;;;2.03;0.90;;;17.60;92.60;;;;;;6127139;23;20002;-67
2023/05/02 12:26:20;;;;;;;1.13;1.00;;;17.70;92.50;;;;;;6101526;23;20433;-66
2023/05/02 12:28:57;;;;;;;2.25;1.00;;;17.80;92.10;;;;;;6127807;23;20084;-66
2023/05/02 12:31:23;;;;;;;1.55;1.17;;;17.90;91.60;;;;;;6127571;23;20011;-67
2023/05/02 12:33:51;;;;;;;1.60;1.08;;;17.90;91.70;;;;;;6144000;23;20023;-66
2023/05/02 12:36:17;;;;;;;1.10;0.82;;;17.90;92.30;;;;;;6156851;23;20002;-67
2023/05/02 12:38:56;;;;;;;3.50;1.00;;;18.00;92.40;;;;;;6157040;23;20004;-66
2023/05/02 12:41:32;;;;;;;1.35;0.70;;;17.90;91.30;;;;;;6156766;23;20013;-66
2023/05/02 12:43:59;;;;;;;0.95;0.70;;;18.00;90.40;;;;;;6156718;23;20028;-66
2023/05/02 12:46:27;;;;;;;1.77;1.15;;;17.90;90.10;;;;;;6156618;23;19998;-66
2023/05/02 12:49:04;;;;;;;1.63;1.00;;;17.90;89.80;;;;;;6155943;23;20314;-66
2023/05/02 12:51:31;;;;;;;3.63;0.80;;;17.90;90.10;;;;;;6153492;23;20340;-66
2023/05/02 12:53:57;;;;;;;2.20;1.00;;;17.90;90.30;;;;;;6154248;23;20423;-66
2023/05/02 12:56:26;;;;;;;0.98;0.73;;;17.90;90.60;;;;;;6156759;23;20013;-67
2023/05/02 12:58:51;;;;;;;1.00;0.80;;;17.90;90.80;;;;;;6156316;23;20085;-66
2023/05/02 13:01:17;;;;;;;1.27;0.75;;;17.90;90.60;;;;;;6156349;23;20013;-66
2023/05/02 13:03:43;;;;;;;2.03;0.93;;;17.90;90.20;;;;;;6157073;23;20009;-66
2023/05/02 13:06:09;;;;;;;6.72;0.93;;;17.90;90.00;;;;;;6156567;23;20024;-67
2023/05/02 13:08:35;;;;;;;1.17;1.00;;;17.90;89.40;;;;;;6156600;23;20005;-67
2023/05/02 13:11:02;;;;;;;1.00;0.80;;;17.90;90.10;;;;;;6156764;23;20076;-66
2023/05/02 13:13:29;;;;;;;1.08;0.88;;;18.00;90.50;;;;;;6156875;23;20029;-66
2023/05/02 13:15:54;;;;;;;1.63;1.00;;;18.00;90.30;;;;;;6156443;23;20365;-67
2023/05/02 13:18:20;;;;;;;0.70;0.65;;;18.00;89.60;;;;;;6156488;23;20044;-66
2023/05/02 13:20:46;;;;;;;3.08;1.10;;;18.00;89.60;;;;;;6156540;23;20001;-66
2023/05/02 13:23:12;;;;;;;3.30;1.10;;;17.90;89.50;;;;;;6156293;23;20005;-66
2023/05/02 13:25:37;;;;;;;1.00;0.90;;;18.00;89.00;;;;;;6156460;23;20024;-66
2023/05/02 13:28:03;;;;;;;1.42;0.80;;;17.90;89.60;;;;;;6156485;23;20056;-66
2023/05/02 13:30:29;;;;;;;1.08;0.70;;;17.90;90.10;;;;;;6154426;23;20005;-67
2023/05/02 13:32:57;;;;;;;1.30;0.80;;;17.90;88.50;;;;;;6154938;23;20021;-65
2023/05/02 13:35:23;;;;;;;4.05;0.90;;;17.90;89.20;;;;;;6153001;23;20008;-67